sensor_id;sensor_type;location;lat;lon;timestamp;temperature;humidity
65239;SHT30;51827;51.186;6.926;2023-08-07T00:00:59;19.20;66.96
65239;SHT30;51827;51.186;6.926;2023-08-07T00:02:00;19.22;66.91
65239;SHT30;51827;51.186;6.926;2023-08-07T00:03:00;19.24;66.96
65239;SHT30;51827;51.186;6.926;2023-08-07T00:04:00;19.20;67.05
65239;SHT30;51827;51.186;6.926;2023-08-07T00:05:00;19.23;67.01
65239;SHT30;51827;51.186;6.926;2023-08-07T00:06:01;19.24;67.01
65239;SHT30;51827;51.186;6.926;2023-08-07T00:07:01;19.30;66.95
65239;SHT30;51827;51.186;6.926;2023-08-07T00:08:02;19.27;66.94
65239;SHT30;51827;51.186;6.926;2023-08-07T00:09:02;19.29;66.91
65239;SHT30;51827;51.186;6.926;2023-08-07T00:10:02;19.23;66.89
65239;SHT30;51827;51.186;6.926;2023-08-07T00:11:10;19.24;67.02
65239;SHT30;51827;51.186;6.926;2023-08-07T00:12:10;19.20;67.26
65239;SHT30;51827;51.186;6.926;2023-08-07T00:13:10;19.18;67.13
65239;SHT30;51827;51.186;6.926;2023-08-07T00:14:10;19.18;67.21
65239;SHT30;51827;51.186;6.926;2023-08-07T00:15:11;19.22;67.18
65239;SHT30;51827;51.186;6.926;2023-08-07T00:16:11;19.19;66.95
65239;SHT30;51827;51.186;6.926;2023-08-07T00:17:11;19.22;67.06
65239;SHT30;51827;51.186;6.926;2023-08-07T00:18:11;19.20;67.15
65239;SHT30;51827;51.186;6.926;2023-08-07T00:19:12;19.23;67.14
65239;SHT30;51827;51.186;6.926;2023-08-07T00:20:12;19.20;67.09
65239;SHT30;51827;51.186;6.926;2023-08-07T00:21:15;19.26;67.14
65239;SHT30;51827;51.186;6.926;2023-08-07T00:22:15;19.22;66.98
65239;SHT30;51827;51.186;6.926;2023-08-07T00:23:16;19.19;67.11
65239;SHT30;51827;51.186;6.926;2023-08-07T00:24:16;19.23;66.99
65239;SHT30;51827;51.186;6.926;2023-08-07T00:25:16;19.27;67.00
65239;SHT30;51827;51.186;6.926;2023-08-07T00:26:17;19.26;66.91
65239;SHT30;51827;51.186;6.926;2023-08-07T00:27:17;19.30;66.89
65239;SHT30;51827;51.186;6.926;2023-08-07T00:28:17;19.32;66.87
65239;SHT30;51827;51.186;6.926;2023-08-07T00:29:18;19.26;66.61
65239;SHT30;51827;51.186;6.926;2023-08-07T00:30:18;19.16;67.11
65239;SHT30;51827;51.186;6.926;2023-08-07T00:31:18;19.13;67.19
65239;SHT30;51827;51.186;6.926;2023-08-07T00:32:18;19.19;67.27
65239;SHT30;51827;51.186;6.926;2023-08-07T00:33:19;19.19;67.14
65239;SHT30;51827;51.186;6.926;2023-08-07T00:34:19;19.15;67.11
65239;SHT30;51827;51.186;6.926;2023-08-07T00:35:19;18.99;67.19
65239;SHT30;51827;51.186;6.926;2023-08-07T00:36:20;19.02;67.44
65239;SHT30;51827;51.186;6.926;2023-08-07T00:37:20;19.08;67.34
65239;SHT30;51827;51.186;6.926;2023-08-07T00:38:20;19.10;67.29
65239;SHT30;51827;51.186;6.926;2023-08-07T00:39:20;19.08;67.17
65239;SHT30;51827;51.186;6.926;2023-08-07T00:40:21;18.99;67.34
65239;SHT30;51827;51.186;6.926;2023-08-07T00:41:21;18.99;67.36
65239;SHT30;51827;51.186;6.926;2023-08-07T00:42:21;18.96;67.35
65239;SHT30;51827;51.186;6.926;2023-08-07T00:43:21;18.95;67.41
65239;SHT30;51827;51.186;6.926;2023-08-07T00:44:22;18.98;67.46
65239;SHT30;51827;51.186;6.926;2023-08-07T00:45:22;19.06;67.49
65239;SHT30;51827;51.186;6.926;2023-08-07T00:46:22;19.06;67.34
65239;SHT30;51827;51.186;6.926;2023-08-07T00:47:23;19.05;67.38
65239;SHT30;51827;51.186;6.926;2023-08-07T00:48:23;19.02;67.30
65239;SHT30;51827;51.186;6.926;2023-08-07T00:49:24;19.02;67.43
65239;SHT30;51827;51.186;6.926;2023-08-07T00:50:25;18.92;67.47
65239;SHT30;51827;51.186;6.926;2023-08-07T00:51:25;18.94;67.43
65239;SHT30;51827;51.186;6.926;2023-08-07T00:52:26;19.00;67.37
65239;SHT30;51827;51.186;6.926;2023-08-07T00:53:26;18.96;67.34
65239;SHT30;51827;51.186;6.926;2023-08-07T00:54:26;19.00;67.46
65239;SHT30;51827;51.186;6.926;2023-08-07T00:55:27;18.99;67.33
65239;SHT30;51827;51.186;6.926;2023-08-07T00:56:29;18.95;67.26
65239;SHT30;51827;51.186;6.926;2023-08-07T00:57:30;18.92;67.28
65239;SHT30;51827;51.186;6.926;2023-08-07T00:58:31;18.96;67.36
65239;SHT30;51827;51.186;6.926;2023-08-07T00:59:32;18.95;67.25
65239;SHT30;51827;51.186;6.926;2023-08-07T01:00:32;18.91;67.47
65239;SHT30;51827;51.186;6.926;2023-08-07T01:01:32;18.98;67.40
65239;SHT30;51827;51.186;6.926;2023-08-07T01:02:33;19.03;67.19
65239;SHT30;51827;51.186;6.926;2023-08-07T01:03:33;19.09;67.21
65239;SHT30;51827;51.186;6.926;2023-08-07T01:04:33;19.12;67.12
65239;SHT30;51827;51.186;6.926;2023-08-07T01:05:34;19.16;66.95
65239;SHT30;51827;51.186;6.926;2023-08-07T01:06:34;19.13;66.79
65239;SHT30;51827;51.186;6.926;2023-08-07T01:07:34;19.12;66.97
65239;SHT30;51827;51.186;6.926;2023-08-07T01:08:35;19.08;67.04
65239;SHT30;51827;51.186;6.926;2023-08-07T01:09:35;19.09;67.08
65239;SHT30;51827;51.186;6.926;2023-08-07T01:10:41;19.10;67.07
65239;SHT30;51827;51.186;6.926;2023-08-07T01:11:50;19.06;66.99
65239;SHT30;51827;51.186;6.926;2023-08-07T01:12:57;19.12;67.03
65239;SHT30;51827;51.186;6.926;2023-08-07T01:14:05;19.08;67.02
65239;SHT30;51827;51.186;6.926;2023-08-07T01:15:14;19.05;67.08
65239;SHT30;51827;51.186;6.926;2023-08-07T01:16:29;18.91;67.44
65239;SHT30;51827;51.186;6.926;2023-08-07T01:17:32;18.89;67.45
65239;SHT30;51827;51.186;6.926;2023-08-07T01:18:32;18.91;67.48
65239;SHT30;51827;51.186;6.926;2023-08-07T01:19:34;18.84;67.57
65239;SHT30;51827;51.186;6.926;2023-08-07T01:20:35;18.72;67.79
65239;SHT30;51827;51.186;6.926;2023-08-07T01:21:36;18.72;67.99
65239;SHT30;51827;51.186;6.926;2023-08-07T01:22:36;18.69;67.92
65239;SHT30;51827;51.186;6.926;2023-08-07T01:23:36;18.72;67.98
65239;SHT30;51827;51.186;6.926;2023-08-07T01:24:38;18.75;67.90
65239;SHT30;51827;51.186;6.926;2023-08-07T01:25:39;18.78;67.85
65239;SHT30;51827;51.186;6.926;2023-08-07T01:26:40;18.84;67.72
65239;SHT30;51827;51.186;6.926;2023-08-07T01:29:06;18.75;67.66
65239;SHT30;51827;51.186;6.926;2023-08-07T01:31:16;18.78;67.62
65239;SHT30;51827;51.186;6.926;2023-08-07T01:32:26;18.72;67.79
65239;SHT30;51827;51.186;6.926;2023-08-07T01:33:51;18.76;67.72
65239;SHT30;51827;51.186;6.926;2023-08-07T01:34:54;18.84;67.65
65239;SHT30;51827;51.186;6.926;2023-08-07T01:35:57;18.85;67.62
65239;SHT30;51827;51.186;6.926;2023-08-07T01:36:59;18.78;67.58
65239;SHT30;51827;51.186;6.926;2023-08-07T01:38:01;18.81;67.46
65239;SHT30;51827;51.186;6.926;2023-08-07T01:39:02;18.86;67.59
65239;SHT30;51827;51.186;6.926;2023-08-07T01:40:03;18.85;67.47
65239;SHT30;51827;51.186;6.926;2023-08-07T01:41:03;18.88;67.36
65239;SHT30;51827;51.186;6.926;2023-08-07T01:42:04;18.84;67.42
65239;SHT30;51827;51.186;6.926;2023-08-07T01:43:05;18.88;67.42
65239;SHT30;51827;51.186;6.926;2023-08-07T01:44:06;18.72;67.52
65239;SHT30;51827;51.186;6.926;2023-08-07T01:45:06;18.79;67.66
65239;SHT30;51827;51.186;6.926;2023-08-07T01:46:10;18.78;67.53
65239;SHT30;51827;51.186;6.926;2023-08-07T01:47:10;18.65;67.80
65239;SHT30;51827;51.186;6.926;2023-08-07T01:48:11;18.69;67.76
65239;SHT30;51827;51.186;6.926;2023-08-07T01:49:11;18.69;67.69
65239;SHT30;51827;51.186;6.926;2023-08-07T01:50:11;18.69;67.88
65239;SHT30;51827;51.186;6.926;2023-08-07T01:51:12;18.64;67.92
65239;SHT30;51827;51.186;6.926;2023-08-07T01:52:12;18.52;68.22
65239;SHT30;51827;51.186;6.926;2023-08-07T01:53:12;18.58;68.19
65239;SHT30;51827;51.186;6.926;2023-08-07T01:54:13;18.66;68.07
65239;SHT30;51827;51.186;6.926;2023-08-07T01:55:14;18.64;68.07
65239;SHT30;51827;51.186;6.926;2023-08-07T01:56:14;18.65;67.97
65239;SHT30;51827;51.186;6.926;2023-08-07T01:57:14;18.69;67.91
65239;SHT30;51827;51.186;6.926;2023-08-07T01:58:15;18.71;67.81
65239;SHT30;51827;51.186;6.926;2023-08-07T01:59:15;18.72;67.77
65239;SHT30;51827;51.186;6.926;2023-08-07T02:00:15;18.64;67.95
65239;SHT30;51827;51.186;6.926;2023-08-07T02:01:15;18.66;68.04
65239;SHT30;51827;51.186;6.926;2023-08-07T02:02:16;18.66;67.90
65239;SHT30;51827;51.186;6.926;2023-08-07T02:03:16;18.71;67.91
65239;SHT30;51827;51.186;6.926;2023-08-07T02:04:16;18.66;67.97
65239;SHT30;51827;51.186;6.926;2023-08-07T02:05:17;18.69;67.91
65239;SHT30;51827;51.186;6.926;2023-08-07T02:06:17;18.66;68.08
65239;SHT30;51827;51.186;6.926;2023-08-07T02:07:17;18.65;68.10
65239;SHT30;51827;51.186;6.926;2023-08-07T02:08:17;18.65;67.96
65239;SHT30;51827;51.186;6.926;2023-08-07T02:09:18;18.65;68.18
65239;SHT30;51827;51.186;6.926;2023-08-07T02:10:18;18.69;68.02
65239;SHT30;51827;51.186;6.926;2023-08-07T02:11:18;18.73;67.98
65239;SHT30;51827;51.186;6.926;2023-08-07T02:12:19;18.71;68.03
65239;SHT30;51827;51.186;6.926;2023-08-07T02:13:19;18.62;68.24
65239;SHT30;51827;51.186;6.926;2023-08-07T02:14:19;18.59;68.29
65239;SHT30;51827;51.186;6.926;2023-08-07T02:15:28;18.64;68.22
65239;SHT30;51827;51.186;6.926;2023-08-07T02:16:35;18.65;68.13
65239;SHT30;51827;51.186;6.926;2023-08-07T02:17:35;18.64;68.14
65239;SHT30;51827;51.186;6.926;2023-08-07T02:18:36;18.62;68.12
65239;SHT30;51827;51.186;6.926;2023-08-07T02:19:36;18.62;68.19
65239;SHT30;51827;51.186;6.926;2023-08-07T02:20:36;18.51;68.28
65239;SHT30;51827;51.186;6.926;2023-08-07T02:21:37;18.40;68.57
65239;SHT30;51827;51.186;6.926;2023-08-07T02:22:37;18.38;68.76
65239;SHT30;51827;51.186;6.926;2023-08-07T02:23:37;18.27;68.87
65239;SHT30;51827;51.186;6.926;2023-08-07T02:24:37;18.28;68.99
65239;SHT30;51827;51.186;6.926;2023-08-07T02:25:38;18.25;69.02
65239;SHT30;51827;51.186;6.926;2023-08-07T02:26:38;18.24;69.09
65239;SHT30;51827;51.186;6.926;2023-08-07T02:27:38;18.15;69.37
65239;SHT30;51827;51.186;6.926;2023-08-07T02:28:39;18.15;69.42
65239;SHT30;51827;51.186;6.926;2023-08-07T02:29:39;18.15;69.38
65239;SHT30;51827;51.186;6.926;2023-08-07T02:30:39;18.18;69.25
65239;SHT30;51827;51.186;6.926;2023-08-07T02:31:40;18.25;69.19
65239;SHT30;51827;51.186;6.926;2023-08-07T02:32:40;18.28;69.05
65239;SHT30;51827;51.186;6.926;2023-08-07T02:33:43;18.27;69.11
65239;SHT30;51827;51.186;6.926;2023-08-07T02:34:44;18.21;69.22
65239;SHT30;51827;51.186;6.926;2023-08-07T02:35:45;18.27;69.20
65239;SHT30;51827;51.186;6.926;2023-08-07T02:36:45;18.18;69.25
65239;SHT30;51827;51.186;6.926;2023-08-07T02:37:45;18.28;69.18
65239;SHT30;51827;51.186;6.926;2023-08-07T02:38:45;18.34;69.02
65239;SHT30;51827;51.186;6.926;2023-08-07T02:39:46;18.41;68.82
65239;SHT30;51827;51.186;6.926;2023-08-07T02:40:46;18.47;68.75
65239;SHT30;51827;51.186;6.926;2023-08-07T02:41:46;18.49;68.57
65239;SHT30;51827;51.186;6.926;2023-08-07T02:42:46;18.45;68.67
65239;SHT30;51827;51.186;6.926;2023-08-07T02:43:47;18.48;68.69
65239;SHT30;51827;51.186;6.926;2023-08-07T02:44:48;18.49;68.62
65239;SHT30;51827;51.186;6.926;2023-08-07T02:45:48;18.49;68.63
65239;SHT30;51827;51.186;6.926;2023-08-07T02:46:48;18.42;68.57
65239;SHT30;51827;51.186;6.926;2023-08-07T02:47:49;18.32;69.00
65239;SHT30;51827;51.186;6.926;2023-08-07T02:48:49;18.31;69.07
65239;SHT30;51827;51.186;6.926;2023-08-07T02:49:49;18.31;69.06
65239;SHT30;51827;51.186;6.926;2023-08-07T02:50:50;18.37;68.99
65239;SHT30;51827;51.186;6.926;2023-08-07T02:51:50;18.30;69.19
65239;SHT30;51827;51.186;6.926;2023-08-07T02:52:50;18.35;69.01
65239;SHT30;51827;51.186;6.926;2023-08-07T02:53:50;18.38;69.00
65239;SHT30;51827;51.186;6.926;2023-08-07T02:54:50;18.25;69.28
65239;SHT30;51827;51.186;6.926;2023-08-07T02:55:51;18.31;69.22
65239;SHT30;51827;51.186;6.926;2023-08-07T02:56:54;18.35;69.03
65239;SHT30;51827;51.186;6.926;2023-08-07T02:57:54;18.31;69.13
65239;SHT30;51827;51.186;6.926;2023-08-07T02:59:00;18.32;69.19
65239;SHT30;51827;51.186;6.926;2023-08-07T03:00:03;18.38;69.00
65239;SHT30;51827;51.186;6.926;2023-08-07T03:01:04;18.41;68.97
65239;SHT30;51827;51.186;6.926;2023-08-07T03:02:05;18.47;68.84
65239;SHT30;51827;51.186;6.926;2023-08-07T03:03:05;18.35;69.06
65239;SHT30;51827;51.186;6.926;2023-08-07T03:04:05;18.30;69.14
65239;SHT30;51827;51.186;6.926;2023-08-07T03:05:06;18.41;68.95
65239;SHT30;51827;51.186;6.926;2023-08-07T03:06:06;18.40;68.91
65239;SHT30;51827;51.186;6.926;2023-08-07T03:07:07;18.51;68.78
65239;SHT30;51827;51.186;6.926;2023-08-07T03:08:07;18.51;68.57
65239;SHT30;51827;51.186;6.926;2023-08-07T03:09:07;18.51;68.59
65239;SHT30;51827;51.186;6.926;2023-08-07T03:10:07;18.47;68.67
65239;SHT30;51827;51.186;6.926;2023-08-07T03:11:08;18.47;68.64
65239;SHT30;51827;51.186;6.926;2023-08-07T03:12:08;18.52;68.57
65239;SHT30;51827;51.186;6.926;2023-08-07T03:13:08;18.59;68.46
65239;SHT30;51827;51.186;6.926;2023-08-07T03:14:09;18.49;68.42
65239;SHT30;51827;51.186;6.926;2023-08-07T03:15:09;18.54;68.49
65239;SHT30;51827;51.186;6.926;2023-08-07T03:16:09;18.55;68.43
65239;SHT30;51827;51.186;6.926;2023-08-07T03:17:10;18.56;68.36
65239;SHT30;51827;51.186;6.926;2023-08-07T03:18:10;18.59;68.31
65239;SHT30;51827;51.186;6.926;2023-08-07T03:19:10;18.59;68.21
65239;SHT30;51827;51.186;6.926;2023-08-07T03:20:11;18.49;68.53
65239;SHT30;51827;51.186;6.926;2023-08-07T03:21:11;18.44;68.57
65239;SHT30;51827;51.186;6.926;2023-08-07T03:22:12;18.42;68.69
65239;SHT30;51827;51.186;6.926;2023-08-07T03:23:12;18.45;68.73
65239;SHT30;51827;51.186;6.926;2023-08-07T03:24:12;18.48;68.57
65239;SHT30;51827;51.186;6.926;2023-08-07T03:25:12;18.54;68.44
65239;SHT30;51827;51.186;6.926;2023-08-07T03:26:13;18.58;68.30
65239;SHT30;51827;51.186;6.926;2023-08-07T03:27:13;18.65;68.20
65239;SHT30;51827;51.186;6.926;2023-08-07T03:28:14;18.66;67.98
65239;SHT30;51827;51.186;6.926;2023-08-07T03:29:14;18.71;67.98
65239;SHT30;51827;51.186;6.926;2023-08-07T03:30:14;18.79;67.86
65239;SHT30;51827;51.186;6.926;2023-08-07T03:31:15;18.66;67.93
65239;SHT30;51827;51.186;6.926;2023-08-07T03:32:16;18.66;67.97
65239;SHT30;51827;51.186;6.926;2023-08-07T03:33:16;18.69;67.91
65239;SHT30;51827;51.186;6.926;2023-08-07T03:34:16;18.71;67.87
65239;SHT30;51827;51.186;6.926;2023-08-07T03:35:16;18.75;67.79
65239;SHT30;51827;51.186;6.926;2023-08-07T03:36:17;18.78;67.70
65239;SHT30;51827;51.186;6.926;2023-08-07T03:37:17;18.81;67.62
65239;SHT30;51827;51.186;6.926;2023-08-07T03:38:18;18.82;67.54
65239;SHT30;51827;51.186;6.926;2023-08-07T03:39:18;18.84;67.42
65239;SHT30;51827;51.186;6.926;2023-08-07T03:40:18;18.85;67.48
65239;SHT30;51827;51.186;6.926;2023-08-07T03:41:18;18.89;68.02
65239;SHT30;51827;51.186;6.926;2023-08-07T03:42:19;18.89;68.37
65239;SHT30;51827;51.186;6.926;2023-08-07T03:43:19;18.91;68.56
65239;SHT30;51827;51.186;6.926;2023-08-07T03:44:19;18.94;68.20
65239;SHT30;51827;51.186;6.926;2023-08-07T03:45:19;18.99;68.21
65239;SHT30;51827;51.186;6.926;2023-08-07T03:46:20;18.98;67.82
65239;SHT30;51827;51.186;6.926;2023-08-07T03:47:20;19.00;67.85
65239;SHT30;51827;51.186;6.926;2023-08-07T03:48:20;18.98;67.56
65239;SHT30;51827;51.186;6.926;2023-08-07T03:49:20;19.00;67.66
65239;SHT30;51827;51.186;6.926;2023-08-07T03:50:20;19.03;67.73
65239;SHT30;51827;51.186;6.926;2023-08-07T03:51:24;19.08;67.81
65239;SHT30;51827;51.186;6.926;2023-08-07T03:52:24;19.00;67.50
65239;SHT30;51827;51.186;6.926;2023-08-07T03:53:24;18.94;67.73
65239;SHT30;51827;51.186;6.926;2023-08-07T03:54:25;18.94;67.78
65239;SHT30;51827;51.186;6.926;2023-08-07T03:55:25;18.96;67.73
65239;SHT30;51827;51.186;6.926;2023-08-07T03:56:25;18.98;68.17
65239;SHT30;51827;51.186;6.926;2023-08-07T03:57:26;18.86;68.24
65239;SHT30;51827;51.186;6.926;2023-08-07T03:58:26;18.75;68.52
65239;SHT30;51827;51.186;6.926;2023-08-07T03:59:26;18.85;68.85
65239;SHT30;51827;51.186;6.926;2023-08-07T04:00:26;18.88;68.86
65239;SHT30;51827;51.186;6.926;2023-08-07T04:01:27;18.85;68.79
65239;SHT30;51827;51.186;6.926;2023-08-07T04:02:27;18.82;68.78
65239;SHT30;51827;51.186;6.926;2023-08-07T04:03:27;18.81;68.74
65239;SHT30;51827;51.186;6.926;2023-08-07T04:04:27;18.82;68.85
65239;SHT30;51827;51.186;6.926;2023-08-07T04:05:28;18.76;68.92
65239;SHT30;51827;51.186;6.926;2023-08-07T04:06:28;18.76;68.74
65239;SHT30;51827;51.186;6.926;2023-08-07T04:07:28;18.73;68.95
65239;SHT30;51827;51.186;6.926;2023-08-07T04:08:28;18.78;68.91
65239;SHT30;51827;51.186;6.926;2023-08-07T04:09:29;18.81;68.93
65239;SHT30;51827;51.186;6.926;2023-08-07T04:10:29;18.89;68.93
65239;SHT30;51827;51.186;6.926;2023-08-07T04:11:29;18.92;68.49
65239;SHT30;51827;51.186;6.926;2023-08-07T04:12:29;18.98;68.65
65239;SHT30;51827;51.186;6.926;2023-08-07T04:13:30;18.99;68.26
65239;SHT30;51827;51.186;6.926;2023-08-07T04:14:31;19.00;68.20
65239;SHT30;51827;51.186;6.926;2023-08-07T04:15:31;19.03;68.15
65239;SHT30;51827;51.186;6.926;2023-08-07T04:16:31;19.10;68.09
65239;SHT30;51827;51.186;6.926;2023-08-07T04:17:32;19.05;68.07
65239;SHT30;51827;51.186;6.926;2023-08-07T04:18:33;19.09;67.84
65239;SHT30;51827;51.186;6.926;2023-08-07T04:19:33;19.12;67.87
65239;SHT30;51827;51.186;6.926;2023-08-07T04:20:33;19.12;67.62
65239;SHT30;51827;51.186;6.926;2023-08-07T04:21:33;19.15;67.60
65239;SHT30;51827;51.186;6.926;2023-08-07T04:22:34;19.13;67.64
65239;SHT30;51827;51.186;6.926;2023-08-07T04:23:34;19.16;67.64
65239;SHT30;51827;51.186;6.926;2023-08-07T04:24:34;19.18;67.66
65239;SHT30;51827;51.186;6.926;2023-08-07T04:25:34;19.20;67.66
65239;SHT30;51827;51.186;6.926;2023-08-07T04:26:35;19.23;67.50
65239;SHT30;51827;51.186;6.926;2023-08-07T04:27:35;19.22;67.49
65239;SHT30;51827;51.186;6.926;2023-08-07T04:28:35;19.18;67.56
65239;SHT30;51827;51.186;6.926;2023-08-07T04:29:35;19.16;67.43
65239;SHT30;51827;51.186;6.926;2023-08-07T04:30:38;19.13;67.48
65239;SHT30;51827;51.186;6.926;2023-08-07T04:31:38;19.10;67.55
65239;SHT30;51827;51.186;6.926;2023-08-07T04:32:39;18.98;67.50
65239;SHT30;51827;51.186;6.926;2023-08-07T04:33:39;18.94;67.80
65239;SHT30;51827;51.186;6.926;2023-08-07T04:34:39;18.88;67.72
65239;SHT30;51827;51.186;6.926;2023-08-07T04:35:40;18.85;68.06
65239;SHT30;51827;51.186;6.926;2023-08-07T04:36:40;18.89;68.06
65239;SHT30;51827;51.186;6.926;2023-08-07T04:37:40;18.91;68.25
65239;SHT30;51827;51.186;6.926;2023-08-07T04:38:40;18.89;68.20
65239;SHT30;51827;51.186;6.926;2023-08-07T04:39:41;18.88;67.99
65239;SHT30;51827;51.186;6.926;2023-08-07T04:40:48;18.82;67.97
65239;SHT30;51827;51.186;6.926;2023-08-07T04:41:49;18.76;68.17
65239;SHT30;51827;51.186;6.926;2023-08-07T04:42:49;18.81;68.31
65239;SHT30;51827;51.186;6.926;2023-08-07T04:43:49;18.89;68.28
65239;SHT30;51827;51.186;6.926;2023-08-07T04:44:50;18.95;68.25
65239;SHT30;51827;51.186;6.926;2023-08-07T04:45:50;18.99;68.17
65239;SHT30;51827;51.186;6.926;2023-08-07T04:46:53;19.08;67.90
65239;SHT30;51827;51.186;6.926;2023-08-07T04:47:53;19.09;67.88
65239;SHT30;51827;51.186;6.926;2023-08-07T04:48:53;19.05;67.41
65239;SHT30;51827;51.186;6.926;2023-08-07T04:49:54;19.08;67.72
65239;SHT30;51827;51.186;6.926;2023-08-07T04:50:54;19.13;67.81
65239;SHT30;51827;51.186;6.926;2023-08-07T04:51:54;19.18;67.65
65239;SHT30;51827;51.186;6.926;2023-08-07T04:52:54;19.22;67.60
65239;SHT30;51827;51.186;6.926;2023-08-07T04:53:57;19.23;67.38
65239;SHT30;51827;51.186;6.926;2023-08-07T04:54:57;19.23;67.21
65239;SHT30;51827;51.186;6.926;2023-08-07T04:55:59;19.24;67.15
65239;SHT30;51827;51.186;6.926;2023-08-07T04:56:59;19.27;67.27
65239;SHT30;51827;51.186;6.926;2023-08-07T04:58:00;19.33;67.10
65239;SHT30;51827;51.186;6.926;2023-08-07T04:59:00;19.37;67.16
65239;SHT30;51827;51.186;6.926;2023-08-07T05:00:04;19.39;67.11
65239;SHT30;51827;51.186;6.926;2023-08-07T05:01:04;19.42;66.98
65239;SHT30;51827;51.186;6.926;2023-08-07T05:02:05;19.37;66.82
65239;SHT30;51827;51.186;6.926;2023-08-07T05:03:05;19.40;66.87
65239;SHT30;51827;51.186;6.926;2023-08-07T05:04:05;19.43;66.75
65239;SHT30;51827;51.186;6.926;2023-08-07T05:05:06;19.47;66.78
65239;SHT30;51827;51.186;6.926;2023-08-07T05:06:06;19.47;66.69
65239;SHT30;51827;51.186;6.926;2023-08-07T05:07:06;19.49;66.71
65239;SHT30;51827;51.186;6.926;2023-08-07T05:08:07;19.49;66.58
65239;SHT30;51827;51.186;6.926;2023-08-07T05:09:07;19.52;66.62
65239;SHT30;51827;51.186;6.926;2023-08-07T05:10:12;19.52;66.56
65239;SHT30;51827;51.186;6.926;2023-08-07T05:11:12;19.50;66.46
65239;SHT30;51827;51.186;6.926;2023-08-07T05:12:12;19.52;66.39
65239;SHT30;51827;51.186;6.926;2023-08-07T05:13:12;19.47;66.36
65239;SHT30;51827;51.186;6.926;2023-08-07T05:14:13;19.42;66.70
65239;SHT30;51827;51.186;6.926;2023-08-07T05:15:13;19.39;66.57
65239;SHT30;51827;51.186;6.926;2023-08-07T05:16:13;19.37;66.77
65239;SHT30;51827;51.186;6.926;2023-08-07T05:17:13;19.37;66.79
65239;SHT30;51827;51.186;6.926;2023-08-07T05:18:14;19.39;66.63
65239;SHT30;51827;51.186;6.926;2023-08-07T05:19:14;19.42;66.70
65239;SHT30;51827;51.186;6.926;2023-08-07T05:20:14;19.39;66.68
65239;SHT30;51827;51.186;6.926;2023-08-07T05:21:15;19.45;66.64
65239;SHT30;51827;51.186;6.926;2023-08-07T05:22:15;19.46;66.41
65239;SHT30;51827;51.186;6.926;2023-08-07T05:23:15;19.49;66.49
65239;SHT30;51827;51.186;6.926;2023-08-07T05:24:19;19.49;66.48
65239;SHT30;51827;51.186;6.926;2023-08-07T05:25:19;19.52;66.45
65239;SHT30;51827;51.186;6.926;2023-08-07T05:26:19;19.52;66.39
65239;SHT30;51827;51.186;6.926;2023-08-07T05:27:19;19.52;66.42
65239;SHT30;51827;51.186;6.926;2023-08-07T05:28:20;19.56;66.42
65239;SHT30;51827;51.186;6.926;2023-08-07T05:29:20;19.54;66.40
65239;SHT30;51827;51.186;6.926;2023-08-07T05:30:20;19.59;66.29
65239;SHT30;51827;51.186;6.926;2023-08-07T05:31:21;19.59;66.27
65239;SHT30;51827;51.186;6.926;2023-08-07T05:32:21;19.60;66.16
65239;SHT30;51827;51.186;6.926;2023-08-07T05:33:21;19.57;66.13
65239;SHT30;51827;51.186;6.926;2023-08-07T05:34:21;19.59;66.19
65239;SHT30;51827;51.186;6.926;2023-08-07T05:35:22;19.62;66.16
65239;SHT30;51827;51.186;6.926;2023-08-07T05:36:22;19.63;66.04
65239;SHT30;51827;51.186;6.926;2023-08-07T05:37:22;19.63;66.15
65239;SHT30;51827;51.186;6.926;2023-08-07T05:38:22;19.63;66.20
65239;SHT30;51827;51.186;6.926;2023-08-07T05:39:23;19.63;66.15
65239;SHT30;51827;51.186;6.926;2023-08-07T05:40:23;19.66;66.13
65239;SHT30;51827;51.186;6.926;2023-08-07T05:41:23;19.66;66.14
65239;SHT30;51827;51.186;6.926;2023-08-07T05:42:23;19.66;66.13
65239;SHT30;51827;51.186;6.926;2023-08-07T05:43:24;19.70;66.06
65239;SHT30;51827;51.186;6.926;2023-08-07T05:44:24;19.69;66.05
65239;SHT30;51827;51.186;6.926;2023-08-07T05:45:24;19.64;66.05
65239;SHT30;51827;51.186;6.926;2023-08-07T05:46:25;19.63;66.10
65239;SHT30;51827;51.186;6.926;2023-08-07T05:47:25;19.64;66.13
65239;SHT30;51827;51.186;6.926;2023-08-07T05:48:26;19.67;66.12
65239;SHT30;51827;51.186;6.926;2023-08-07T05:49:26;19.62;66.06
65239;SHT30;51827;51.186;6.926;2023-08-07T05:50:26;19.62;66.13
65239;SHT30;51827;51.186;6.926;2023-08-07T05:51:26;19.62;66.16
65239;SHT30;51827;51.186;6.926;2023-08-07T05:52:27;19.63;66.21
65239;SHT30;51827;51.186;6.926;2023-08-07T05:53:27;19.64;66.14
65239;SHT30;51827;51.186;6.926;2023-08-07T05:54:27;19.64;66.10
65239;SHT30;51827;51.186;6.926;2023-08-07T05:55:27;19.66;66.16
65239;SHT30;51827;51.186;6.926;2023-08-07T05:56:28;19.66;66.08
65239;SHT30;51827;51.186;6.926;2023-08-07T05:57:28;19.64;66.10
65239;SHT30;51827;51.186;6.926;2023-08-07T05:58:28;19.66;66.13
65239;SHT30;51827;51.186;6.926;2023-08-07T05:59:28;19.63;66.17
65239;SHT30;51827;51.186;6.926;2023-08-07T06:00:32;19.64;66.18
65239;SHT30;51827;51.186;6.926;2023-08-07T06:01:32;19.62;66.16
65239;SHT30;51827;51.186;6.926;2023-08-07T06:02:32;19.62;66.20
65239;SHT30;51827;51.186;6.926;2023-08-07T06:03:32;19.64;66.12
65239;SHT30;51827;51.186;6.926;2023-08-07T06:04:33;19.66;66.05
65239;SHT30;51827;51.186;6.926;2023-08-07T06:05:33;19.63;66.08
65239;SHT30;51827;51.186;6.926;2023-08-07T06:06:34;19.66;66.10
65239;SHT30;51827;51.186;6.926;2023-08-07T06:07:34;19.59;66.08
65239;SHT30;51827;51.186;6.926;2023-08-07T06:08:34;19.57;66.25
65239;SHT30;51827;51.186;6.926;2023-08-07T06:09:35;19.57;66.26
65239;SHT30;51827;51.186;6.926;2023-08-07T06:10:35;19.56;66.15
65239;SHT30;51827;51.186;6.926;2023-08-07T06:11:36;19.57;66.27
65239;SHT30;51827;51.186;6.926;2023-08-07T06:12:36;19.59;66.21
65239;SHT30;51827;51.186;6.926;2023-08-07T06:13:36;19.60;66.20
65239;SHT30;51827;51.186;6.926;2023-08-07T06:14:37;19.63;66.21
65239;SHT30;51827;51.186;6.926;2023-08-07T06:15:37;19.64;66.18
65239;SHT30;51827;51.186;6.926;2023-08-07T06:16:37;19.66;66.10
65239;SHT30;51827;51.186;6.926;2023-08-07T06:17:38;19.66;66.07
65239;SHT30;51827;51.186;6.926;2023-08-07T06:18:38;19.63;66.18
65239;SHT30;51827;51.186;6.926;2023-08-07T06:19:38;19.60;66.01
65239;SHT30;51827;51.186;6.926;2023-08-07T06:20:38;19.57;66.18
65239;SHT30;51827;51.186;6.926;2023-08-07T06:21:39;19.53;66.28
65239;SHT30;51827;51.186;6.926;2023-08-07T06:22:40;19.52;66.29
65239;SHT30;51827;51.186;6.926;2023-08-07T06:23:40;19.53;66.40
65239;SHT30;51827;51.186;6.926;2023-08-07T06:24:40;19.52;66.41
65239;SHT30;51827;51.186;6.926;2023-08-07T06:25:40;19.54;66.34
65239;SHT30;51827;51.186;6.926;2023-08-07T06:26:41;19.54;66.32